»·PEaware :: N224LW KSAN-KBUR

N224LW :: KSAN-KBUR

FLIGHT INFORMATION

Flight Status: Arrived
Operator: Privately registered:
United States
More flights under this callsign
Pilot: Rod T. (6553)
Aircraft: CIRRUS SR-22 TURBO
(S22T)
More flights by this aircraft type
Origin: KSAN San Diego Intl-Lindbergh
United States
Destination: KBUR Bob Hope-Burbank
United States
More flights between these airports :: More routes between these airports
Route: OCN V23 POPPR SMO125R SMO SMO311R SILEX
File this flight plan on PilotEdge
Remarks: TEC Route SANP13
Altitude:
(Current/Filed)
6,000ft
Speed:
(Current/Filed)
180kts
Departed: 06-Aug-18 08:01 PM
Arrived: 06-Aug-18 08:50 PM
Distance/Time
Traveled:
106nm/0:48
Distance/Time
To Go:
Arrived

Flight Plot

Page will automatically refresh every two minutes.


Map Options




Map Legend


Flown Route
Filed Route
Departure Airport
Arrival Airport
Navaid (VOR, NDB)
Fix

Horizontal Profiles

Position Reports

Time Latitude Longitude Heading Altitude Ground
Speed
06-Aug-18 19:51 32.734263 -117.185243 195 19ft 0kts
06-Aug-18 19:52 32.734263 -117.185243 195 19ft 0kts
06-Aug-18 19:53 32.734263 -117.185243 195 19ft 0kts
06-Aug-18 19:54 32.734263 -117.185243 195 19ft 0kts
06-Aug-18 19:55 32.734263 -117.185243 195 19ft 0kts
06-Aug-18 19:56 32.734263 -117.185243 195 19ft 0kts
06-Aug-18 19:57 32.734263 -117.185243 195 19ft 0kts
06-Aug-18 19:58 32.734263 -117.185243 195 19ft 0kts
06-Aug-18 19:59 32.733300 -117.183872 105 19ft 23kts
06-Aug-18 20:00 32.731770 -117.177474 102 19ft 16kts
06-Aug-18 20:01 32.730207 -117.175631 271 19ft 18kts
06-Aug-18 20:02 32.741771 -117.200673 322 957ft 113kts
06-Aug-18 20:03 32.767569 -117.224616 321 2008ft 143kts
06-Aug-18 20:04 32.802141 -117.256963 321 1999ft 167kts
06-Aug-18 20:05 32.839534 -117.291458 321 1998ft 172kts
06-Aug-18 20:06 32.877183 -117.326165 321 2450ft 156kts
06-Aug-18 20:07 32.907029 -117.354728 321 4073ft 139kts
06-Aug-18 20:08 32.936773 -117.384412 322 5447ft 141kts
06-Aug-18 20:09 32.970013 -117.416947 322 6000ft 177kts
06-Aug-18 20:10 33.008234 -117.454525 321 5978ft 179kts
06-Aug-18 20:11 33.046597 -117.492300 321 5992ft 178kts
06-Aug-18 20:12 33.084888 -117.530110 321 5996ft 178kts
06-Aug-18 20:13 33.123032 -117.567786 321 5997ft 179kts
06-Aug-18 20:14 33.161199 -117.605531 321 5997ft 179kts
06-Aug-18 20:15 33.199315 -117.643267 321 5997ft 179kts
06-Aug-18 20:16 33.237296 -117.680916 321 5996ft 179kts
06-Aug-18 20:17 33.275546 -117.718877 321 5996ft 179kts
06-Aug-18 20:18 33.313785 -117.756859 321 5996ft 179kts
06-Aug-18 20:19 33.352111 -117.794987 321 5996ft 179kts
06-Aug-18 20:20 33.396869 -117.839568 321 5969ft 180kts
06-Aug-18 20:21 33.428875 -117.871480 321 5969ft 179kts
06-Aug-18 20:22 33.467251 -117.909775 321 5969ft 180kts
06-Aug-18 20:23 33.505649 -117.948165 321 5969ft 180kts
06-Aug-18 20:24 33.543499 -117.986035 321 5969ft 181kts
06-Aug-18 20:25 33.582089 -118.024695 321 5969ft 181kts
06-Aug-18 20:26 33.620640 -118.063362 321 5969ft 181kts
06-Aug-18 20:27 33.659374 -118.102262 321 5969ft 181kts
06-Aug-18 20:28 33.698055 -118.141154 321 5969ft 181kts
06-Aug-18 20:29 33.736704 -118.180058 321 5977ft 182kts
06-Aug-18 20:30 33.775505 -118.219169 321 5978ft 182kts
06-Aug-18 20:31 33.814237 -118.258259 321 5978ft 182kts
06-Aug-18 20:32 33.853059 -118.297491 321 5978ft 182kts
06-Aug-18 20:33 33.891860 -118.336753 321 5978ft 182kts
06-Aug-18 20:34 33.930762 -118.376167 321 5978ft 182kts
06-Aug-18 20:35 33.969558 -118.415540 321 5956ft 183kts
06-Aug-18 20:36 34.008413 -118.455013 321 5960ft 182kts
06-Aug-18 20:37 34.042841 -118.500017 311 5467ft 183kts
06-Aug-18 20:38 34.075552 -118.546172 312 4770ft 182kts
06-Aug-18 20:39 34.108377 -118.592184 312 4072ft 181kts
06-Aug-18 20:40 34.139273 -118.635442 312 3984ft 159kts
06-Aug-18 20:41 34.167421 -118.672476 311 3985ft 144kts
06-Aug-18 20:42 34.198438 -118.685017 57 3989ft 136kts
06-Aug-18 20:43 34.201080 -118.638291 92 3688ft 140kts
06-Aug-18 20:44 34.200617 -118.594650 91 3692ft 126kts
06-Aug-18 20:45 34.200025 -118.551321 90 3687ft 134kts
06-Aug-18 20:46 34.199620 -118.509122 91 3067ft 114kts
06-Aug-18 20:47 34.199287 -118.473179 91 2497ft 101kts
06-Aug-18 20:48 34.198822 -118.439723 91 1973ft 101kts
06-Aug-18 20:49 34.198336 -118.403265 90 1390ft 106kts
06-Aug-18 20:50 34.197982 -118.372367 90 873ft 82kts
06-Aug-18 20:51 34.198592 -118.360235 3 778ft 0kts
06-Aug-18 20:52 34.198592 -118.360235 3 778ft 0kts
06-Aug-18 20:53 34.199483 -118.360107 50 778ft 11kts

Navigation Log

Ident Type
Flight plan parsing failed, navigation log unavailable